Airfield :
LOGIN :

Register | Disclaimer

   EN    FR    IT 

 










Legend :    VFR   Marginal VFR   IFR   Intensive IFR   Very Intensive IFR
Visi :
Ceiling :
>= 8 km
>= 3000ft
5 to 8 km
1000 to 3000 ft
1500m to 5 km
500 to 1000 ft
800 to 1500m
200 to 500 ft
< 800m
< 200 ft
Symbols :   Thunderstorms  Fog  Heavy snow  Heavy precipitations  Wind > 20 kt
SIGMETs :     Misc.  Thunderstorms  Icing  Turbulence  Mountain Waves  Volcanic Ashes







- Airport Elevation : 141 ft
- IATA code : SKS


EKSP - Srydstrup Vojens

CURRENT METAR :
  • 300020Z 19005KT 0300 R10/1500U R28/1600D FG VV001 06/06 Q1022

EXPIRED METARs :
  • 292350Z 20005KT 0300 R10/P2000N R28/1300N FG VV001 06/06 Q1022
  • 292320Z 21006KT 0300 R10/1700D R28/1000D FG VV001 06/06 Q1022
  • 292250Z 20006KT 0300 R10/0900N R28/0750N FG VV001 07/06 Q1022
  • 292220Z 22003KT 0700 R10/1900D R28/P2000N FG VV001 07/06 Q1022
  • 292150Z 23005KT 1700 BR OVC002 07/06 Q1022
  • 292142Z 24005KT 1700 BR OVC002 07/06 Q1022

TAF TAF EKSP
Valid from the 30 at 00:00 until the 31 at 00:00 UTC


292323Z 3000/3024 20005KT 0200 FG BKN001
TEMPO 3000/3007 5000 -RADZ BR BKN005
BECMG 3007/3009 24012KT 8000 NSW BKN020
TEMPO 3009/3011 2000 BR BKN003
TEMPO 3011/3017 6000 BKN008
No reported NOTAMs for that airfield.



MET'MAP, your aeronautical weather chart ! - Copyright ORBIFLY December 2007 - Disclaimer

ORBIFLY MET'MAP TEAM :

Programming & Development : Alexandra Zaïnal
Concept & Development : Baudouin d'Aumeries
Co-Development & Prog : Marc-Olivier Méhu
Technical & hardware support : Manuel Goepfert

Contact : metmap@orbifly.com




SOURCES & CREDITS :

   NOAA